sensor_id;sensor_type;location;lat;lon;timestamp;temperature;humidity
68026;SHT31;54819;48.030;14.710;2023-07-31T00:01:34;18.02;75.76
68026;SHT31;54819;48.030;14.710;2023-07-31T00:04:01;18.08;74.92
68026;SHT31;54819;48.030;14.710;2023-07-31T00:06:28;18.15;74.53
68026;SHT31;54819;48.030;14.710;2023-07-31T00:08:54;18.21;74.58
68026;SHT31;54819;48.030;14.710;2023-07-31T00:11:21;18.26;74.51
68026;SHT31;54819;48.030;14.710;2023-07-31T00:13:48;18.29;74.22
68026;SHT31;54819;48.030;14.710;2023-07-31T00:16:14;18.32;74.01
68026;SHT31;54819;48.030;14.710;2023-07-31T00:18:41;18.35;73.78
68026;SHT31;54819;48.030;14.710;2023-07-31T00:21:08;18.38;73.76
68026;SHT31;54819;48.030;14.710;2023-07-31T00:23:34;18.39;73.36
68026;SHT31;54819;48.030;14.710;2023-07-31T00:26:01;18.38;73.20
68026;SHT31;54819;48.030;14.710;2023-07-31T00:28:28;18.38;72.84
68026;SHT31;54819;48.030;14.710;2023-07-31T00:30:55;18.37;72.86
68026;SHT31;54819;48.030;14.710;2023-07-31T00:33:25;18.35;72.97
68026;SHT31;54819;48.030;14.710;2023-07-31T00:35:51;18.31;72.63
68026;SHT31;54819;48.030;14.710;2023-07-31T00:38:18;18.27;72.17
68026;SHT31;54819;48.030;14.710;2023-07-31T00:40:45;18.23;71.89
68026;SHT31;54819;48.030;14.710;2023-07-31T00:43:11;18.20;72.40
68026;SHT31;54819;48.030;14.710;2023-07-31T00:45:38;18.17;72.53
68026;SHT31;54819;48.030;14.710;2023-07-31T00:48:05;18.14;72.30
68026;SHT31;54819;48.030;14.710;2023-07-31T00:50:34;18.13;72.87
68026;SHT31;54819;48.030;14.710;2023-07-31T00:53:02;18.11;73.07
68026;SHT31;54819;48.030;14.710;2023-07-31T00:55:29;18.10;72.95
68026;SHT31;54819;48.030;14.710;2023-07-31T00:57:56;18.07;72.96
68026;SHT31;54819;48.030;14.710;2023-07-31T01:00:23;18.05;73.40
68026;SHT31;54819;48.030;14.710;2023-07-31T01:02:50;18.02;73.31
68026;SHT31;54819;48.030;14.710;2023-07-31T01:05:25;18.00;73.37
68026;SHT31;54819;48.030;14.710;2023-07-31T01:08:18;17.98;73.42
68026;SHT31;54819;48.030;14.710;2023-07-31T01:10:49;17.97;73.11
68026;SHT31;54819;48.030;14.710;2023-07-31T01:13:20;17.97;73.32
68026;SHT31;54819;48.030;14.710;2023-07-31T01:15:47;17.97;73.31
68026;SHT31;54819;48.030;14.710;2023-07-31T01:18:14;17.97;73.33
68026;SHT31;54819;48.030;14.710;2023-07-31T01:20:42;17.95;73.68
68026;SHT31;54819;48.030;14.710;2023-07-31T01:26:12;17.94;74.22
68026;SHT31;54819;48.030;14.710;2023-07-31T01:28:47;17.93;74.48
68026;SHT31;54819;48.030;14.710;2023-07-31T01:31:24;17.93;74.49
68026;SHT31;54819;48.030;14.710;2023-07-31T01:33:53;17.95;74.74
68026;SHT31;54819;48.030;14.710;2023-07-31T01:36:22;17.99;74.83
68026;SHT31;54819;48.030;14.710;2023-07-31T01:38:49;18.02;74.95
68026;SHT31;54819;48.030;14.710;2023-07-31T01:41:19;18.05;75.04
68026;SHT31;54819;48.030;14.710;2023-07-31T01:43:46;18.07;75.26
68026;SHT31;54819;48.030;14.710;2023-07-31T01:46:13;18.09;74.97
68026;SHT31;54819;48.030;14.710;2023-07-31T01:48:40;18.14;74.16
68026;SHT31;54819;48.030;14.710;2023-07-31T01:51:06;18.21;73.38
68026;SHT31;54819;48.030;14.710;2023-07-31T01:53:33;18.27;72.41
68026;SHT31;54819;48.030;14.710;2023-07-31T01:56:00;18.34;72.13
68026;SHT31;54819;48.030;14.710;2023-07-31T01:58:29;18.38;72.24
68026;SHT31;54819;48.030;14.710;2023-07-31T02:00:56;18.37;71.84
68026;SHT31;54819;48.030;14.710;2023-07-31T02:03:23;18.35;71.72
68026;SHT31;54819;48.030;14.710;2023-07-31T02:05:51;18.30;71.23
68026;SHT31;54819;48.030;14.710;2023-07-31T02:08:17;18.26;70.85
68026;SHT31;54819;48.030;14.710;2023-07-31T02:10:44;18.19;70.73
68026;SHT31;54819;48.030;14.710;2023-07-31T02:13:11;18.15;70.22
68026;SHT31;54819;48.030;14.710;2023-07-31T02:15:37;18.12;69.82
68026;SHT31;54819;48.030;14.710;2023-07-31T02:18:04;18.09;69.60
68026;SHT31;54819;48.030;14.710;2023-07-31T02:20:33;18.05;69.59
68026;SHT31;54819;48.030;14.710;2023-07-31T02:23:01;18.00;69.57
68026;SHT31;54819;48.030;14.710;2023-07-31T02:25:28;17.94;69.16
68026;SHT31;54819;48.030;14.710;2023-07-31T02:27:55;17.89;69.14
68026;SHT31;54819;48.030;14.710;2023-07-31T02:30:22;17.85;68.89
68026;SHT31;54819;48.030;14.710;2023-07-31T02:32:49;17.81;69.15
68026;SHT31;54819;48.030;14.710;2023-07-31T02:35:16;17.78;68.95
68026;SHT31;54819;48.030;14.710;2023-07-31T02:37:45;17.76;68.80
68026;SHT31;54819;48.030;14.710;2023-07-31T02:40:12;17.74;68.90
68026;SHT31;54819;48.030;14.710;2023-07-31T02:42:39;17.70;68.56
68026;SHT31;54819;48.030;14.710;2023-07-31T02:45:06;17.66;68.87
68026;SHT31;54819;48.030;14.710;2023-07-31T02:47:33;17.61;69.01
68026;SHT31;54819;48.030;14.710;2023-07-31T02:50:01;17.56;69.14
68026;SHT31;54819;48.030;14.710;2023-07-31T02:52:28;17.52;68.94
68026;SHT31;54819;48.030;14.710;2023-07-31T02:54:56;17.52;68.90
68026;SHT31;54819;48.030;14.710;2023-07-31T02:57:23;17.53;68.82
68026;SHT31;54819;48.030;14.710;2023-07-31T02:59:50;17.52;68.47
68026;SHT31;54819;48.030;14.710;2023-07-31T03:02:16;17.50;68.34
68026;SHT31;54819;48.030;14.710;2023-07-31T03:04:43;17.49;67.98
68026;SHT31;54819;48.030;14.710;2023-07-31T03:07:10;17.46;67.99
68026;SHT31;54819;48.030;14.710;2023-07-31T03:09:37;17.44;67.84
68026;SHT31;54819;48.030;14.710;2023-07-31T03:12:04;17.43;67.96
68026;SHT31;54819;48.030;14.710;2023-07-31T03:14:31;17.42;67.37
68026;SHT31;54819;48.030;14.710;2023-07-31T03:16:59;17.41;67.40
68026;SHT31;54819;48.030;14.710;2023-07-31T03:19:26;17.40;67.69
68026;SHT31;54819;48.030;14.710;2023-07-31T03:21:52;17.38;67.66
68026;SHT31;54819;48.030;14.710;2023-07-31T03:24:19;17.35;68.02
68026;SHT31;54819;48.030;14.710;2023-07-31T03:26:45;17.30;68.13
68026;SHT31;54819;48.030;14.710;2023-07-31T03:29:12;17.26;68.29
68026;SHT31;54819;48.030;14.710;2023-07-31T03:31:39;17.20;68.30
68026;SHT31;54819;48.030;14.710;2023-07-31T03:34:06;17.17;67.78
68026;SHT31;54819;48.030;14.710;2023-07-31T03:36:32;17.12;68.00
68026;SHT31;54819;48.030;14.710;2023-07-31T03:38:59;17.09;68.13
68026;SHT31;54819;48.030;14.710;2023-07-31T03:41:26;17.05;68.20
68026;SHT31;54819;48.030;14.710;2023-07-31T03:43:52;17.00;68.49
68026;SHT31;54819;48.030;14.710;2023-07-31T03:46:19;16.95;68.62
68026;SHT31;54819;48.030;14.710;2023-07-31T03:48:47;16.90;68.60
68026;SHT31;54819;48.030;14.710;2023-07-31T03:51:15;16.84;68.54
68026;SHT31;54819;48.030;14.710;2023-07-31T03:53:43;16.81;68.81
68026;SHT31;54819;48.030;14.710;2023-07-31T03:56:11;16.76;68.90
68026;SHT31;54819;48.030;14.710;2023-07-31T03:58:37;16.71;68.93
68026;SHT31;54819;48.030;14.710;2023-07-31T04:01:05;16.67;69.31
68026;SHT31;54819;48.030;14.710;2023-07-31T04:03:32;16.62;70.00
68026;SHT31;54819;48.030;14.710;2023-07-31T04:05:59;16.58;70.53
68026;SHT31;54819;48.030;14.710;2023-07-31T04:08:25;16.54;70.74
68026;SHT31;54819;48.030;14.710;2023-07-31T04:10:52;16.50;70.73
68026;SHT31;54819;48.030;14.710;2023-07-31T04:13:19;16.46;70.80
68026;SHT31;54819;48.030;14.710;2023-07-31T04:15:49;16.42;71.19
68026;SHT31;54819;48.030;14.710;2023-07-31T04:18:20;16.40;71.13
68026;SHT31;54819;48.030;14.710;2023-07-31T04:20:47;16.38;71.43
68026;SHT31;54819;48.030;14.710;2023-07-31T04:23:14;16.37;71.70
68026;SHT31;54819;48.030;14.710;2023-07-31T04:25:40;16.35;71.70
68026;SHT31;54819;48.030;14.710;2023-07-31T04:28:07;16.36;71.50
68026;SHT31;54819;48.030;14.710;2023-07-31T04:30:34;16.38;71.84
68026;SHT31;54819;48.030;14.710;2023-07-31T04:33:01;16.41;72.11
68026;SHT31;54819;48.030;14.710;2023-07-31T04:35:28;16.44;72.11
68026;SHT31;54819;48.030;14.710;2023-07-31T04:37:54;16.48;72.26
68026;SHT31;54819;48.030;14.710;2023-07-31T04:40:21;16.51;72.21
68026;SHT31;54819;48.030;14.710;2023-07-31T04:42:48;16.54;72.31
68026;SHT31;54819;48.030;14.710;2023-07-31T04:45:14;16.57;72.25
68026;SHT31;54819;48.030;14.710;2023-07-31T04:47:41;16.58;72.37
68026;SHT31;54819;48.030;14.710;2023-07-31T04:50:08;16.62;72.27
68026;SHT31;54819;48.030;14.710;2023-07-31T04:52:35;16.67;72.11
68026;SHT31;54819;48.030;14.710;2023-07-31T04:55:02;16.71;71.86
68026;SHT31;54819;48.030;14.710;2023-07-31T04:57:29;16.77;71.92
68026;SHT31;54819;48.030;14.710;2023-07-31T04:59:56;16.83;71.63
68026;SHT31;54819;48.030;14.710;2023-07-31T05:02:22;16.89;71.48
68026;SHT31;54819;48.030;14.710;2023-07-31T05:04:49;16.96;71.40
68026;SHT31;54819;48.030;14.710;2023-07-31T05:07:16;17.02;71.08
68026;SHT31;54819;48.030;14.710;2023-07-31T05:09:43;17.09;71.13
68026;SHT31;54819;48.030;14.710;2023-07-31T05:12:10;17.15;71.08
68026;SHT31;54819;48.030;14.710;2023-07-31T05:14:36;17.21;70.91
68026;SHT31;54819;48.030;14.710;2023-07-31T05:17:03;17.27;70.94
68026;SHT31;54819;48.030;14.710;2023-07-31T05:19:30;17.33;70.92
68026;SHT31;54819;48.030;14.710;2023-07-31T05:21:57;17.38;70.66
68026;SHT31;54819;48.030;14.710;2023-07-31T05:24:24;17.43;70.57
68026;SHT31;54819;48.030;14.710;2023-07-31T05:26:50;17.49;70.39
68026;SHT31;54819;48.030;14.710;2023-07-31T05:29:17;17.52;70.28
68026;SHT31;54819;48.030;14.710;2023-07-31T05:31:44;17.56;70.30
68026;SHT31;54819;48.030;14.710;2023-07-31T05:34:10;17.60;70.22
68026;SHT31;54819;48.030;14.710;2023-07-31T05:36:37;17.65;70.08
68026;SHT31;54819;48.030;14.710;2023-07-31T05:39:04;17.69;70.09
68026;SHT31;54819;48.030;14.710;2023-07-31T05:41:35;17.73;69.97
68026;SHT31;54819;48.030;14.710;2023-07-31T05:44:02;17.77;69.39
68026;SHT31;54819;48.030;14.710;2023-07-31T05:46:28;17.79;68.93
68026;SHT31;54819;48.030;14.710;2023-07-31T05:48:55;17.85;68.90
68026;SHT31;54819;48.030;14.710;2023-07-31T05:51:22;17.89;68.65
68026;SHT31;54819;48.030;14.710;2023-07-31T05:53:49;17.94;68.73
68026;SHT31;54819;48.030;14.710;2023-07-31T05:56:15;18.00;68.59
68026;SHT31;54819;48.030;14.710;2023-07-31T05:58:42;18.05;68.34
68026;SHT31;54819;48.030;14.710;2023-07-31T06:01:08;18.11;68.19
68026;SHT31;54819;48.030;14.710;2023-07-31T06:03:35;18.19;67.68
68026;SHT31;54819;48.030;14.710;2023-07-31T06:06:02;18.28;67.68
68026;SHT31;54819;48.030;14.710;2023-07-31T06:08:28;18.36;67.81
68026;SHT31;54819;48.030;14.710;2023-07-31T06:10:55;18.43;67.44
68026;SHT31;54819;48.030;14.710;2023-07-31T06:13:22;18.48;67.97
68026;SHT31;54819;48.030;14.710;2023-07-31T06:15:48;18.52;67.82
68026;SHT31;54819;48.030;14.710;2023-07-31T06:18:15;18.51;67.98
68026;SHT31;54819;48.030;14.710;2023-07-31T06:20:42;18.49;67.88
68026;SHT31;54819;48.030;14.710;2023-07-31T06:23:09;18.47;67.83
68026;SHT31;54819;48.030;14.710;2023-07-31T06:25:35;18.45;68.17
68026;SHT31;54819;48.030;14.710;2023-07-31T06:28:02;18.41;67.88
68026;SHT31;54819;48.030;14.710;2023-07-31T06:30:29;18.40;67.66
68026;SHT31;54819;48.030;14.710;2023-07-31T06:32:56;18.39;67.32
68026;SHT31;54819;48.030;14.710;2023-07-31T06:35:22;18.43;68.34
68026;SHT31;54819;48.030;14.710;2023-07-31T06:37:49;18.47;69.69
68026;SHT31;54819;48.030;14.710;2023-07-31T06:40:17;18.48;69.22
68026;SHT31;54819;48.030;14.710;2023-07-31T06:42:44;18.52;69.26
68026;SHT31;54819;48.030;14.710;2023-07-31T06:45:11;18.62;68.83
68026;SHT31;54819;48.030;14.710;2023-07-31T06:47:38;18.74;68.33
68026;SHT31;54819;48.030;14.710;2023-07-31T06:50:05;18.85;68.38
68026;SHT31;54819;48.030;14.710;2023-07-31T06:52:32;19.02;68.06
68026;SHT31;54819;48.030;14.710;2023-07-31T06:55:02;19.16;67.85
68026;SHT31;54819;48.030;14.710;2023-07-31T06:57:30;19.34;67.28
68026;SHT31;54819;48.030;14.710;2023-07-31T06:59:57;19.52;65.93
68026;SHT31;54819;48.030;14.710;2023-07-31T07:02:24;19.67;64.01
68026;SHT31;54819;48.030;14.710;2023-07-31T07:04:50;19.80;63.77
68026;SHT31;54819;48.030;14.710;2023-07-31T07:07:17;19.96;63.31
68026;SHT31;54819;48.030;14.710;2023-07-31T07:09:44;20.13;62.61
68026;SHT31;54819;48.030;14.710;2023-07-31T07:12:11;20.28;60.39
68026;SHT31;54819;48.030;14.710;2023-07-31T07:14:37;20.39;60.18
68026;SHT31;54819;48.030;14.710;2023-07-31T07:17:04;20.55;60.45
68026;SHT31;54819;48.030;14.710;2023-07-31T07:19:31;20.70;60.19
68026;SHT31;54819;48.030;14.710;2023-07-31T07:21:58;20.77;60.41
68026;SHT31;54819;48.030;14.710;2023-07-31T07:24:28;20.86;60.19
68026;SHT31;54819;48.030;14.710;2023-07-31T07:26:55;20.98;60.39
68026;SHT31;54819;48.030;14.710;2023-07-31T07:29:21;21.08;59.76
68026;SHT31;54819;48.030;14.710;2023-07-31T07:31:48;21.12;59.19
68026;SHT31;54819;48.030;14.710;2023-07-31T07:34:15;21.21;59.42
68026;SHT31;54819;48.030;14.710;2023-07-31T07:36:41;21.31;59.75
68026;SHT31;54819;48.030;14.710;2023-07-31T07:39:09;21.42;59.42
68026;SHT31;54819;48.030;14.710;2023-07-31T07:41:37;21.51;58.65
68026;SHT31;54819;48.030;14.710;2023-07-31T07:44:04;21.58;58.50
68026;SHT31;54819;48.030;14.710;2023-07-31T07:46:31;21.68;58.25
68026;SHT31;54819;48.030;14.710;2023-07-31T07:48:57;21.78;58.48
68026;SHT31;54819;48.030;14.710;2023-07-31T07:51:24;21.85;57.50
68026;SHT31;54819;48.030;14.710;2023-07-31T07:53:51;21.92;55.57
68026;SHT31;54819;48.030;14.710;2023-07-31T07:56:18;22.00;56.12
68026;SHT31;54819;48.030;14.710;2023-07-31T07:58:44;22.12;55.85
68026;SHT31;54819;48.030;14.710;2023-07-31T08:01:11;22.22;55.77
68026;SHT31;54819;48.030;14.710;2023-07-31T08:03:38;22.33;55.29
68026;SHT31;54819;48.030;14.710;2023-07-31T08:06:04;22.41;55.08
68026;SHT31;54819;48.030;14.710;2023-07-31T08:08:31;22.43;54.90
68026;SHT31;54819;48.030;14.710;2023-07-31T08:10:58;22.46;54.02
68026;SHT31;54819;48.030;14.710;2023-07-31T08:13:25;22.42;53.91
68026;SHT31;54819;48.030;14.710;2023-07-31T08:15:51;22.41;54.01
68026;SHT31;54819;48.030;14.710;2023-07-31T08:18:18;22.43;54.04
68026;SHT31;54819;48.030;14.710;2023-07-31T08:20:45;22.47;53.57
68026;SHT31;54819;48.030;14.710;2023-07-31T08:23:12;22.52;53.41
68026;SHT31;54819;48.030;14.710;2023-07-31T08:25:39;22.57;53.54
68026;SHT31;54819;48.030;14.710;2023-07-31T08:28:06;22.66;53.42
68026;SHT31;54819;48.030;14.710;2023-07-31T08:30:33;22.82;53.96
68026;SHT31;54819;48.030;14.710;2023-07-31T08:33:00;22.92;53.07
68026;SHT31;54819;48.030;14.710;2023-07-31T08:35:27;22.98;52.78
68026;SHT31;54819;48.030;14.710;2023-07-31T08:37:56;23.11;53.13
68026;SHT31;54819;48.030;14.710;2023-07-31T08:40:23;23.23;52.29
68026;SHT31;54819;48.030;14.710;2023-07-31T08:42:52;23.34;52.63
68026;SHT31;54819;48.030;14.710;2023-07-31T08:45:20;23.49;52.44
68026;SHT31;54819;48.030;14.710;2023-07-31T08:47:47;23.64;51.22
68026;SHT31;54819;48.030;14.710;2023-07-31T08:50:17;23.75;51.66
68026;SHT31;54819;48.030;14.710;2023-07-31T08:52:46;23.83;51.33
68026;SHT31;54819;48.030;14.710;2023-07-31T08:55:15;23.94;51.75
68026;SHT31;54819;48.030;14.710;2023-07-31T08:57:42;24.11;51.43
68026;SHT31;54819;48.030;14.710;2023-07-31T09:00:10;24.21;50.93
68026;SHT31;54819;48.030;14.710;2023-07-31T09:02:38;24.29;50.37
68026;SHT31;54819;48.030;14.710;2023-07-31T09:05:12;24.32;49.10
68026;SHT31;54819;48.030;14.710;2023-07-31T09:07:39;24.33;48.69
68026;SHT31;54819;48.030;14.710;2023-07-31T09:10:07;24.32;49.07
68026;SHT31;54819;48.030;14.710;2023-07-31T09:12:34;24.34;49.01
68026;SHT31;54819;48.030;14.710;2023-07-31T09:15:01;24.26;48.30
68026;SHT31;54819;48.030;14.710;2023-07-31T09:17:31;24.28;48.58
68026;SHT31;54819;48.030;14.710;2023-07-31T09:20:18;24.36;49.11
68026;SHT31;54819;48.030;14.710;2023-07-31T09:22:48;24.52;48.59
68026;SHT31;54819;48.030;14.710;2023-07-31T09:25:19;24.72;48.65
68026;SHT31;54819;48.030;14.710;2023-07-31T09:27:53;24.97;49.20
68026;SHT31;54819;48.030;14.710;2023-07-31T09:30:24;25.18;48.89
68026;SHT31;54819;48.030;14.710;2023-07-31T09:32:59;25.37;47.67
68026;SHT31;54819;48.030;14.710;2023-07-31T09:37:59;25.78;48.18
68026;SHT31;54819;48.030;14.710;2023-07-31T09:40:33;25.76;47.68
68026;SHT31;54819;48.030;14.710;2023-07-31T09:43:01;25.78;47.51
68026;SHT31;54819;48.030;14.710;2023-07-31T09:45:33;25.80;47.70
68026;SHT31;54819;48.030;14.710;2023-07-31T09:48:11;25.84;48.01
68026;SHT31;54819;48.030;14.710;2023-07-31T09:50:41;25.97;47.77
68026;SHT31;54819;48.030;14.710;2023-07-31T09:53:09;26.14;47.33
68026;SHT31;54819;48.030;14.710;2023-07-31T09:55:36;26.31;46.33
68026;SHT31;54819;48.030;14.710;2023-07-31T09:58:05;26.33;45.61
68026;SHT31;54819;48.030;14.710;2023-07-31T10:00:33;26.16;46.03
68026;SHT31;54819;48.030;14.710;2023-07-31T10:03:01;25.99;46.40
68026;SHT31;54819;48.030;14.710;2023-07-31T10:05:33;26.00;46.46
68026;SHT31;54819;48.030;14.710;2023-07-31T10:08:01;25.83;45.29
68026;SHT31;54819;48.030;14.710;2023-07-31T10:10:29;25.77;46.17
68026;SHT31;54819;48.030;14.710;2023-07-31T10:12:56;25.67;45.97
68026;SHT31;54819;48.030;14.710;2023-07-31T10:15:24;25.66;46.24
68026;SHT31;54819;48.030;14.710;2023-07-31T10:17:52;25.72;46.18
68026;SHT31;54819;48.030;14.710;2023-07-31T10:20:23;25.65;45.81
68026;SHT31;54819;48.030;14.710;2023-07-31T10:22:51;25.50;46.35
68026;SHT31;54819;48.030;14.710;2023-07-31T10:25:21;25.43;47.00
68026;SHT31;54819;48.030;14.710;2023-07-31T10:27:49;25.25;46.68
68026;SHT31;54819;48.030;14.710;2023-07-31T10:30:17;25.11;47.34
68026;SHT31;54819;48.030;14.710;2023-07-31T10:32:46;25.09;47.57
68026;SHT31;54819;48.030;14.710;2023-07-31T10:35:17;25.17;47.84
68026;SHT31;54819;48.030;14.710;2023-07-31T10:37:44;25.16;47.02
68026;SHT31;54819;48.030;14.710;2023-07-31T10:40:19;24.98;47.25
68026;SHT31;54819;48.030;14.710;2023-07-31T10:42:50;24.74;47.62
68026;SHT31;54819;48.030;14.710;2023-07-31T10:45:25;24.70;47.80
68026;SHT31;54819;48.030;14.710;2023-07-31T10:48:04;24.69;47.99
68026;SHT31;54819;48.030;14.710;2023-07-31T10:50:48;24.73;48.12
68026;SHT31;54819;48.030;14.710;2023-07-31T10:55:50;24.87;47.63
68026;SHT31;54819;48.030;14.710;2023-07-31T10:58:20;24.85;47.35
68026;SHT31;54819;48.030;14.710;2023-07-31T11:00:49;24.84;47.70
68026;SHT31;54819;48.030;14.710;2023-07-31T11:03:24;24.79;47.45
68026;SHT31;54819;48.030;14.710;2023-07-31T11:05:53;24.75;47.63
68026;SHT31;54819;48.030;14.710;2023-07-31T11:08:30;24.73;47.74
68026;SHT31;54819;48.030;14.710;2023-07-31T11:13:28;24.73;47.80
68026;SHT31;54819;48.030;14.710;2023-07-31T11:15:56;24.74;47.75
68026;SHT31;54819;48.030;14.710;2023-07-31T11:18:23;24.71;47.55
68026;SHT31;54819;48.030;14.710;2023-07-31T11:20:50;24.68;47.88
68026;SHT31;54819;48.030;14.710;2023-07-31T11:23:17;24.69;47.59
68026;SHT31;54819;48.030;14.710;2023-07-31T11:25:44;24.68;47.51
68026;SHT31;54819;48.030;14.710;2023-07-31T11:28:12;24.70;48.15
68026;SHT31;54819;48.030;14.710;2023-07-31T11:30:40;24.75;48.65
68026;SHT31;54819;48.030;14.710;2023-07-31T11:33:09;24.81;48.22
68026;SHT31;54819;48.030;14.710;2023-07-31T11:35:45;24.82;48.29
68026;SHT31;54819;48.030;14.710;2023-07-31T11:38:26;24.87;47.96
68026;SHT31;54819;48.030;14.710;2023-07-31T11:40:58;24.98;48.93
68026;SHT31;54819;48.030;14.710;2023-07-31T11:43:29;25.06;47.95
68026;SHT31;54819;48.030;14.710;2023-07-31T11:45:59;25.01;48.46
68026;SHT31;54819;48.030;14.710;2023-07-31T11:48:31;24.89;48.38
68026;SHT31;54819;48.030;14.710;2023-07-31T11:51:06;24.82;48.29
68026;SHT31;54819;48.030;14.710;2023-07-31T11:56:18;25.04;47.80
68026;SHT31;54819;48.030;14.710;2023-07-31T11:58:47;25.23;47.39
68026;SHT31;54819;48.030;14.710;2023-07-31T12:01:16;25.43;47.75
68026;SHT31;54819;48.030;14.710;2023-07-31T12:03:45;25.60;47.65
68026;SHT31;54819;48.030;14.710;2023-07-31T12:06:13;25.76;48.02
68026;SHT31;54819;48.030;14.710;2023-07-31T12:08:40;25.98;48.22
68026;SHT31;54819;48.030;14.710;2023-07-31T12:11:07;26.07;47.14
68026;SHT31;54819;48.030;14.710;2023-07-31T12:13:36;26.00;46.34
68026;SHT31;54819;48.030;14.710;2023-07-31T12:16:03;25.92;46.10
68026;SHT31;54819;48.030;14.710;2023-07-31T12:18:34;25.91;46.27
68026;SHT31;54819;48.030;14.710;2023-07-31T12:21:05;26.07;46.16
68026;SHT31;54819;48.030;14.710;2023-07-31T12:23:35;26.20;46.24
68026;SHT31;54819;48.030;14.710;2023-07-31T12:28:36;26.33;44.86
68026;SHT31;54819;48.030;14.710;2023-07-31T12:31:04;26.48;45.71
68026;SHT31;54819;48.030;14.710;2023-07-31T12:33:33;26.63;45.86
68026;SHT31;54819;48.030;14.710;2023-07-31T12:36:02;26.68;44.81
68026;SHT31;54819;48.030;14.710;2023-07-31T12:38:30;26.69;44.80
68026;SHT31;54819;48.030;14.710;2023-07-31T12:40:57;26.86;45.24
68026;SHT31;54819;48.030;14.710;2023-07-31T12:43:24;26.95;44.83
68026;SHT31;54819;48.030;14.710;2023-07-31T12:45:51;26.94;44.17
68026;SHT31;54819;48.030;14.710;2023-07-31T12:48:18;27.10;44.47
68026;SHT31;54819;48.030;14.710;2023-07-31T12:50:44;27.26;44.14
68026;SHT31;54819;48.030;14.710;2023-07-31T12:53:11;27.33;43.52
68026;SHT31;54819;48.030;14.710;2023-07-31T12:55:38;27.35;43.42
68026;SHT31;54819;48.030;14.710;2023-07-31T12:58:04;27.21;42.55
68026;SHT31;54819;48.030;14.710;2023-07-31T13:00:31;27.29;43.64
68026;SHT31;54819;48.030;14.710;2023-07-31T13:02:58;27.42;43.50
68026;SHT31;54819;48.030;14.710;2023-07-31T13:05:27;27.54;42.87
68026;SHT31;54819;48.030;14.710;2023-07-31T13:07:54;27.58;43.51
68026;SHT31;54819;48.030;14.710;2023-07-31T13:10:21;27.52;43.80
68026;SHT31;54819;48.030;14.710;2023-07-31T13:12:49;27.37;43.56
68026;SHT31;54819;48.030;14.710;2023-07-31T13:15:16;27.27;44.02
68026;SHT31;54819;48.030;14.710;2023-07-31T13:17:43;27.22;44.89
68026;SHT31;54819;48.030;14.710;2023-07-31T13:20:10;27.22;44.56
68026;SHT31;54819;48.030;14.710;2023-07-31T13:22:37;27.09;44.33
68026;SHT31;54819;48.030;14.710;2023-07-31T13:25:04;26.97;44.19
68026;SHT31;54819;48.030;14.710;2023-07-31T13:27:31;26.87;44.21
68026;SHT31;54819;48.030;14.710;2023-07-31T13:29:58;26.75;44.07
68026;SHT31;54819;48.030;14.710;2023-07-31T13:32:25;26.66;44.53
68026;SHT31;54819;48.030;14.710;2023-07-31T13:34:52;26.66;44.77
68026;SHT31;54819;48.030;14.710;2023-07-31T13:37:19;26.66;44.63
68026;SHT31;54819;48.030;14.710;2023-07-31T13:39:45;26.69;44.67
68026;SHT31;54819;48.030;14.710;2023-07-31T13:42:12;26.69;45.10
68026;SHT31;54819;48.030;14.710;2023-07-31T13:44:39;26.71;45.53
68026;SHT31;54819;48.030;14.710;2023-07-31T13:47:06;26.76;45.43
68026;SHT31;54819;48.030;14.710;2023-07-31T13:49:34;26.76;45.17
68026;SHT31;54819;48.030;14.710;2023-07-31T13:52:02;26.70;44.72
68026;SHT31;54819;48.030;14.710;2023-07-31T13:54:29;26.64;44.82
68026;SHT31;54819;48.030;14.710;2023-07-31T13:56:57;26.65;44.98
68026;SHT31;54819;48.030;14.710;2023-07-31T13:59:23;26.72;45.51
68026;SHT31;54819;48.030;14.710;2023-07-31T14:01:50;26.73;45.14
68026;SHT31;54819;48.030;14.710;2023-07-31T14:04:17;26.72;45.42
68026;SHT31;54819;48.030;14.710;2023-07-31T14:06:44;26.76;45.63
68026;SHT31;54819;48.030;14.710;2023-07-31T14:09:11;26.75;44.98
68026;SHT31;54819;48.030;14.710;2023-07-31T14:11:38;26.68;45.15
68026;SHT31;54819;48.030;14.710;2023-07-31T14:14:08;26.68;45.11
68026;SHT31;54819;48.030;14.710;2023-07-31T14:16:36;26.68;44.99
68026;SHT31;54819;48.030;14.710;2023-07-31T14:19:04;26.68;44.98
68026;SHT31;54819;48.030;14.710;2023-07-31T14:21:31;26.74;44.64
68026;SHT31;54819;48.030;14.710;2023-07-31T14:23:57;26.74;43.83
68026;SHT31;54819;48.030;14.710;2023-07-31T14:26:24;26.75;43.20
68026;SHT31;54819;48.030;14.710;2023-07-31T14:28:51;26.78;43.44
68026;SHT31;54819;48.030;14.710;2023-07-31T14:31:18;26.95;43.78
68026;SHT31;54819;48.030;14.710;2023-07-31T14:33:44;27.13;43.89
68026;SHT31;54819;48.030;14.710;2023-07-31T14:36:11;27.33;43.38
68026;SHT31;54819;48.030;14.710;2023-07-31T14:38:38;27.48;43.27
68026;SHT31;54819;48.030;14.710;2023-07-31T14:41:05;27.52;42.21
68026;SHT31;54819;48.030;14.710;2023-07-31T14:43:31;27.43;41.91
68026;SHT31;54819;48.030;14.710;2023-07-31T14:45:58;27.36;42.46
68026;SHT31;54819;48.030;14.710;2023-07-31T14:48:26;27.36;42.48
68026;SHT31;54819;48.030;14.710;2023-07-31T14:50:53;27.32;42.69
68026;SHT31;54819;48.030;14.710;2023-07-31T14:53:21;27.28;43.25
68026;SHT31;54819;48.030;14.710;2023-07-31T14:55:48;27.28;42.21
68026;SHT31;54819;48.030;14.710;2023-07-31T14:58:14;27.26;42.25
68026;SHT31;54819;48.030;14.710;2023-07-31T15:00:43;27.20;42.14
68026;SHT31;54819;48.030;14.710;2023-07-31T15:03:10;27.14;42.74
68026;SHT31;54819;48.030;14.710;2023-07-31T15:05:37;27.14;42.80
68026;SHT31;54819;48.030;14.710;2023-07-31T15:08:04;27.14;42.79
68026;SHT31;54819;48.030;14.710;2023-07-31T15:10:31;27.03;42.37
68026;SHT31;54819;48.030;14.710;2023-07-31T15:12:58;26.89;42.37
68026;SHT31;54819;48.030;14.710;2023-07-31T15:15:25;26.78;42.45
68026;SHT31;54819;48.030;14.710;2023-07-31T15:17:51;26.65;41.38
68026;SHT31;54819;48.030;14.710;2023-07-31T15:20:18;26.63;42.66
68026;SHT31;54819;48.030;14.710;2023-07-31T15:22:45;26.66;43.54
68026;SHT31;54819;48.030;14.710;2023-07-31T15:25:11;26.72;43.70
68026;SHT31;54819;48.030;14.710;2023-07-31T15:27:38;26.74;43.36
68026;SHT31;54819;48.030;14.710;2023-07-31T15:30:05;26.71;42.22
68026;SHT31;54819;48.030;14.710;2023-07-31T15:32:32;26.65;42.67
68026;SHT31;54819;48.030;14.710;2023-07-31T15:34:59;26.59;43.02